sensor_id;sensor_type;location;lat;lon;timestamp;temperature;humidity
39919;DHT22;25589;51.552;13.424;2023-06-22T00:00:52;22.60;99.90
39919;DHT22;25589;51.552;13.424;2023-06-22T00:03:19;22.50;99.90
39919;DHT22;25589;51.552;13.424;2023-06-22T00:05:46;22.40;99.90
39919;DHT22;25589;51.552;13.424;2023-06-22T00:08:11;22.30;99.90
39919;DHT22;25589;51.552;13.424;2023-06-22T00:10:37;22.30;99.90
39919;DHT22;25589;51.552;13.424;2023-06-22T00:13:02;22.30;99.90
39919;DHT22;25589;51.552;13.424;2023-06-22T00:15:28;22.30;99.90
39919;DHT22;25589;51.552;13.424;2023-06-22T00:17:54;22.20;99.90
39919;DHT22;25589;51.552;13.424;2023-06-22T00:20:20;22.10;99.90
39919;DHT22;25589;51.552;13.424;2023-06-22T00:22:45;22.20;99.90
39919;DHT22;25589;51.552;13.424;2023-06-22T00:25:11;22.20;99.90
39919;DHT22;25589;51.552;13.424;2023-06-22T00:27:37;22.20;99.90
39919;DHT22;25589;51.552;13.424;2023-06-22T00:30:04;22.20;99.90
39919;DHT22;25589;51.552;13.424;2023-06-22T00:32:30;22.20;99.90
39919;DHT22;25589;51.552;13.424;2023-06-22T00:34:56;22.20;99.90
39919;DHT22;25589;51.552;13.424;2023-06-22T00:37:22;22.20;99.90
39919;DHT22;25589;51.552;13.424;2023-06-22T00:39:52;22.10;99.90
39919;DHT22;25589;51.552;13.424;2023-06-22T00:42:19;22.00;99.90
39919;DHT22;25589;51.552;13.424;2023-06-22T00:44:46;22.00;99.90
39919;DHT22;25589;51.552;13.424;2023-06-22T00:47:13;22.00;99.90
39919;DHT22;25589;51.552;13.424;2023-06-22T00:49:41;22.00;99.90
39919;DHT22;25589;51.552;13.424;2023-06-22T00:52:07;21.90;99.90
39919;DHT22;25589;51.552;13.424;2023-06-22T00:54:40;21.90;99.90
39919;DHT22;25589;51.552;13.424;2023-06-22T00:57:14;21.90;99.90
39919;DHT22;25589;51.552;13.424;2023-06-22T00:59:44;21.90;99.90
39919;DHT22;25589;51.552;13.424;2023-06-22T01:02:11;21.90;99.90
39919;DHT22;25589;51.552;13.424;2023-06-22T01:04:38;21.90;99.90
39919;DHT22;25589;51.552;13.424;2023-06-22T01:07:31;21.90;99.90
39919;DHT22;25589;51.552;13.424;2023-06-22T01:10:27;21.90;99.90
39919;DHT22;25589;51.552;13.424;2023-06-22T01:12:59;21.80;99.90
39919;DHT22;25589;51.552;13.424;2023-06-22T01:17:52;21.80;99.90
39919;DHT22;25589;51.552;13.424;2023-06-22T01:20:20;21.80;99.90
39919;DHT22;25589;51.552;13.424;2023-06-22T01:23:19;21.80;99.90
39919;DHT22;25589;51.552;13.424;2023-06-22T01:25:59;21.80;99.90
39919;DHT22;25589;51.552;13.424;2023-06-22T01:28:45;21.80;99.90
39919;DHT22;25589;51.552;13.424;2023-06-22T01:31:14;21.70;99.90
39919;DHT22;25589;51.552;13.424;2023-06-22T01:33:43;21.70;99.90
39919;DHT22;25589;51.552;13.424;2023-06-22T01:36:10;21.60;99.90
39919;DHT22;25589;51.552;13.424;2023-06-22T01:38:37;21.60;99.90
39919;DHT22;25589;51.552;13.424;2023-06-22T01:41:02;21.60;99.90
39919;DHT22;25589;51.552;13.424;2023-06-22T01:43:29;21.60;99.90
39919;DHT22;25589;51.552;13.424;2023-06-22T01:45:56;21.60;99.90
39919;DHT22;25589;51.552;13.424;2023-06-22T01:48:23;21.50;99.90
39919;DHT22;25589;51.552;13.424;2023-06-22T01:50:49;21.50;99.90
39919;DHT22;25589;51.552;13.424;2023-06-22T01:53:16;21.50;99.90
39919;DHT22;25589;51.552;13.424;2023-06-22T01:55:41;21.50;99.90
39919;DHT22;25589;51.552;13.424;2023-06-22T01:58:07;21.50;99.90
39919;DHT22;25589;51.552;13.424;2023-06-22T02:00:36;21.50;99.90
39919;DHT22;25589;51.552;13.424;2023-06-22T02:03:10;21.50;99.90
39919;DHT22;25589;51.552;13.424;2023-06-22T02:05:48;21.50;99.90
39919;DHT22;25589;51.552;13.424;2023-06-22T02:08:35;21.40;99.90
39919;DHT22;25589;51.552;13.424;2023-06-22T02:11:03;21.40;99.90
39919;DHT22;25589;51.552;13.424;2023-06-22T02:13:29;21.40;99.90
39919;DHT22;25589;51.552;13.424;2023-06-22T02:15:56;21.40;99.90
39919;DHT22;25589;51.552;13.424;2023-06-22T02:18:21;21.40;99.90
39919;DHT22;25589;51.552;13.424;2023-06-22T02:20:47;21.40;99.90
39919;DHT22;25589;51.552;13.424;2023-06-22T02:23:12;21.40;99.90
39919;DHT22;25589;51.552;13.424;2023-06-22T02:25:38;21.30;99.90
39919;DHT22;25589;51.552;13.424;2023-06-22T02:28:05;21.40;99.90
39919;DHT22;25589;51.552;13.424;2023-06-22T02:30:32;21.40;99.90
39919;DHT22;25589;51.552;13.424;2023-06-22T02:32:58;21.20;99.90
39919;DHT22;25589;51.552;13.424;2023-06-22T02:35:30;21.30;99.90
39919;DHT22;25589;51.552;13.424;2023-06-22T02:38:01;21.20;99.90
39919;DHT22;25589;51.552;13.424;2023-06-22T02:40:28;21.20;99.90
39919;DHT22;25589;51.552;13.424;2023-06-22T02:42:56;21.20;99.90
39919;DHT22;25589;51.552;13.424;2023-06-22T02:45:23;21.20;99.90
39919;DHT22;25589;51.552;13.424;2023-06-22T02:47:50;21.20;99.90
39919;DHT22;25589;51.552;13.424;2023-06-22T02:50:16;21.20;99.90
39919;DHT22;25589;51.552;13.424;2023-06-22T02:52:43;21.10;99.90
39919;DHT22;25589;51.552;13.424;2023-06-22T02:55:08;21.10;99.90
39919;DHT22;25589;51.552;13.424;2023-06-22T02:57:34;21.10;99.90
39919;DHT22;25589;51.552;13.424;2023-06-22T03:00:02;21.10;99.90
39919;DHT22;25589;51.552;13.424;2023-06-22T03:02:29;21.10;99.90
39919;DHT22;25589;51.552;13.424;2023-06-22T03:04:54;21.10;99.90
39919;DHT22;25589;51.552;13.424;2023-06-22T03:07:20;21.00;99.90
39919;DHT22;25589;51.552;13.424;2023-06-22T03:09:48;21.10;99.90
39919;DHT22;25589;51.552;13.424;2023-06-22T03:12:13;21.20;99.90
39919;DHT22;25589;51.552;13.424;2023-06-22T03:14:48;21.10;99.90
39919;DHT22;25589;51.552;13.424;2023-06-22T03:17:14;21.10;99.90
39919;DHT22;25589;51.552;13.424;2023-06-22T03:19:40;21.00;99.90
39919;DHT22;25589;51.552;13.424;2023-06-22T03:22:06;21.00;99.90
39919;DHT22;25589;51.552;13.424;2023-06-22T03:24:32;21.00;99.90
39919;DHT22;25589;51.552;13.424;2023-06-22T03:27:00;21.10;99.90
39919;DHT22;25589;51.552;13.424;2023-06-22T03:29:25;21.10;99.90
39919;DHT22;25589;51.552;13.424;2023-06-22T03:31:51;21.10;99.90
39919;DHT22;25589;51.552;13.424;2023-06-22T03:34:17;21.20;99.90
39919;DHT22;25589;51.552;13.424;2023-06-22T03:36:42;21.20;99.90
39919;DHT22;25589;51.552;13.424;2023-06-22T03:39:10;21.20;99.90
39919;DHT22;25589;51.552;13.424;2023-06-22T03:41:36;21.20;99.90
39919;DHT22;25589;51.552;13.424;2023-06-22T03:44:01;21.20;99.90
39919;DHT22;25589;51.552;13.424;2023-06-22T03:46:27;21.30;99.90
39919;DHT22;25589;51.552;13.424;2023-06-22T03:48:53;21.30;99.90
39919;DHT22;25589;51.552;13.424;2023-06-22T03:51:18;21.30;99.90
39919;DHT22;25589;51.552;13.424;2023-06-22T03:53:44;21.30;99.90
39919;DHT22;25589;51.552;13.424;2023-06-22T03:56:09;21.30;99.90
39919;DHT22;25589;51.552;13.424;2023-06-22T03:58:35;21.30;99.90
39919;DHT22;25589;51.552;13.424;2023-06-22T04:01:02;21.40;99.90
39919;DHT22;25589;51.552;13.424;2023-06-22T04:03:27;21.40;99.90
39919;DHT22;25589;51.552;13.424;2023-06-22T04:05:53;21.40;99.90
39919;DHT22;25589;51.552;13.424;2023-06-22T04:08:18;21.40;99.90
39919;DHT22;25589;51.552;13.424;2023-06-22T04:10:44;21.50;99.90
39919;DHT22;25589;51.552;13.424;2023-06-22T04:13:10;21.40;99.90
39919;DHT22;25589;51.552;13.424;2023-06-22T04:15:35;21.50;99.90
39919;DHT22;25589;51.552;13.424;2023-06-22T04:18:01;21.50;99.90
39919;DHT22;25589;51.552;13.424;2023-06-22T04:20:27;21.60;99.90
39919;DHT22;25589;51.552;13.424;2023-06-22T04:22:53;21.60;99.90
39919;DHT22;25589;51.552;13.424;2023-06-22T04:25:19;21.60;99.90
39919;DHT22;25589;51.552;13.424;2023-06-22T04:27:45;21.70;99.90
39919;DHT22;25589;51.552;13.424;2023-06-22T04:30:11;21.70;99.90
39919;DHT22;25589;51.552;13.424;2023-06-22T04:32:37;21.70;99.90
39919;DHT22;25589;51.552;13.424;2023-06-22T04:35:03;21.80;99.90
39919;DHT22;25589;51.552;13.424;2023-06-22T04:37:32;21.80;99.90
39919;DHT22;25589;51.552;13.424;2023-06-22T04:39:58;21.90;99.90
39919;DHT22;25589;51.552;13.424;2023-06-22T04:42:26;22.00;99.90
39919;DHT22;25589;51.552;13.424;2023-06-22T04:44:52;22.00;99.90
39919;DHT22;25589;51.552;13.424;2023-06-22T04:47:17;22.10;99.90
39919;DHT22;25589;51.552;13.424;2023-06-22T04:49:43;22.10;99.90
39919;DHT22;25589;51.552;13.424;2023-06-22T04:52:10;22.10;99.90
39919;DHT22;25589;51.552;13.424;2023-06-22T04:54:38;22.20;99.90
39919;DHT22;25589;51.552;13.424;2023-06-22T04:57:06;22.30;99.90
39919;DHT22;25589;51.552;13.424;2023-06-22T04:59:36;22.30;99.90
39919;DHT22;25589;51.552;13.424;2023-06-22T05:02:02;22.50;99.90
39919;DHT22;25589;51.552;13.424;2023-06-22T05:04:29;22.60;99.90
39919;DHT22;25589;51.552;13.424;2023-06-22T05:06:59;22.70;99.90
39919;DHT22;25589;51.552;13.424;2023-06-22T05:09:25;22.80;99.90
39919;DHT22;25589;51.552;13.424;2023-06-22T05:11:51;22.90;99.90
39919;DHT22;25589;51.552;13.424;2023-06-22T05:14:17;22.90;99.90
39919;DHT22;25589;51.552;13.424;2023-06-22T05:16:43;23.00;99.90
39919;DHT22;25589;51.552;13.424;2023-06-22T05:19:09;23.10;99.90
39919;DHT22;25589;51.552;13.424;2023-06-22T05:21:35;23.10;99.90
39919;DHT22;25589;51.552;13.424;2023-06-22T05:24:01;23.20;99.90
39919;DHT22;25589;51.552;13.424;2023-06-22T05:26:29;23.20;99.90
39919;DHT22;25589;51.552;13.424;2023-06-22T05:28:55;23.30;99.90
39919;DHT22;25589;51.552;13.424;2023-06-22T05:31:21;23.40;99.90
39919;DHT22;25589;51.552;13.424;2023-06-22T05:33:47;23.50;99.90
39919;DHT22;25589;51.552;13.424;2023-06-22T05:36:14;23.50;99.90
39919;DHT22;25589;51.552;13.424;2023-06-22T05:38:40;23.70;99.90
39919;DHT22;25589;51.552;13.424;2023-06-22T05:41:07;23.70;99.90
39919;DHT22;25589;51.552;13.424;2023-06-22T05:43:33;23.80;99.90
39919;DHT22;25589;51.552;13.424;2023-06-22T05:46:03;23.90;99.90
39919;DHT22;25589;51.552;13.424;2023-06-22T05:48:29;24.00;99.90
39919;DHT22;25589;51.552;13.424;2023-06-22T05:50:54;24.00;99.90
39919;DHT22;25589;51.552;13.424;2023-06-22T05:53:20;24.00;99.90
39919;DHT22;25589;51.552;13.424;2023-06-22T05:55:46;24.00;99.90
39919;DHT22;25589;51.552;13.424;2023-06-22T05:58:11;24.00;99.90
39919;DHT22;25589;51.552;13.424;2023-06-22T06:00:39;24.00;99.90
39919;DHT22;25589;51.552;13.424;2023-06-22T06:03:04;24.00;99.90
39919;DHT22;25589;51.552;13.424;2023-06-22T06:05:31;24.00;99.90
39919;DHT22;25589;51.552;13.424;2023-06-22T06:07:58;23.90;99.90
39919;DHT22;25589;51.552;13.424;2023-06-22T06:10:23;24.00;99.90
39919;DHT22;25589;51.552;13.424;2023-06-22T06:12:49;24.00;99.90
39919;DHT22;25589;51.552;13.424;2023-06-22T06:15:14;24.10;99.90
39919;DHT22;25589;51.552;13.424;2023-06-22T06:17:47;24.10;99.90
39919;DHT22;25589;51.552;13.424;2023-06-22T06:20:13;24.10;99.90
39919;DHT22;25589;51.552;13.424;2023-06-22T06:22:39;24.20;99.90
39919;DHT22;25589;51.552;13.424;2023-06-22T06:25:05;24.20;99.90
39919;DHT22;25589;51.552;13.424;2023-06-22T06:27:31;24.30;99.90
39919;DHT22;25589;51.552;13.424;2023-06-22T06:29:57;24.40;99.90
39919;DHT22;25589;51.552;13.424;2023-06-22T06:32:22;24.50;99.90
39919;DHT22;25589;51.552;13.424;2023-06-22T06:34:48;24.60;99.90
39919;DHT22;25589;51.552;13.424;2023-06-22T06:37:13;24.60;99.90
39919;DHT22;25589;51.552;13.424;2023-06-22T06:39:39;24.50;99.90
39919;DHT22;25589;51.552;13.424;2023-06-22T06:42:04;24.80;99.90
39919;DHT22;25589;51.552;13.424;2023-06-22T06:44:30;24.80;99.90
39919;DHT22;25589;51.552;13.424;2023-06-22T06:46:56;24.90;99.90
39919;DHT22;25589;51.552;13.424;2023-06-22T06:49:21;25.00;99.90
39919;DHT22;25589;51.552;13.424;2023-06-22T06:51:47;24.90;99.90
39919;DHT22;25589;51.552;13.424;2023-06-22T06:54:12;25.00;99.90
39919;DHT22;25589;51.552;13.424;2023-06-22T06:56:38;25.00;99.90
39919;DHT22;25589;51.552;13.424;2023-06-22T06:59:03;25.20;99.90
39919;DHT22;25589;51.552;13.424;2023-06-22T07:01:29;25.30;99.90
39919;DHT22;25589;51.552;13.424;2023-06-22T07:03:59;25.50;99.90
39919;DHT22;25589;51.552;13.424;2023-06-22T07:06:24;25.60;99.90
39919;DHT22;25589;51.552;13.424;2023-06-22T07:08:55;25.70;99.90
39919;DHT22;25589;51.552;13.424;2023-06-22T07:11:20;25.90;99.90
39919;DHT22;25589;51.552;13.424;2023-06-22T07:13:46;26.00;99.90
39919;DHT22;25589;51.552;13.424;2023-06-22T07:16:11;26.20;99.90
39919;DHT22;25589;51.552;13.424;2023-06-22T07:18:39;26.30;99.90
39919;DHT22;25589;51.552;13.424;2023-06-22T07:21:05;26.40;99.90
39919;DHT22;25589;51.552;13.424;2023-06-22T07:23:32;26.50;99.90
39919;DHT22;25589;51.552;13.424;2023-06-22T07:25:58;26.50;99.90
39919;DHT22;25589;51.552;13.424;2023-06-22T07:28:27;26.70;99.90
39919;DHT22;25589;51.552;13.424;2023-06-22T07:30:53;26.80;99.90
39919;DHT22;25589;51.552;13.424;2023-06-22T07:33:18;26.90;99.90
39919;DHT22;25589;51.552;13.424;2023-06-22T07:35:45;27.00;99.90
39919;DHT22;25589;51.552;13.424;2023-06-22T07:38:12;27.10;99.90
39919;DHT22;25589;51.552;13.424;2023-06-22T07:40:37;27.20;99.90
39919;DHT22;25589;51.552;13.424;2023-06-22T07:43:03;27.30;99.90
39919;DHT22;25589;51.552;13.424;2023-06-22T07:45:29;27.40;99.90
39919;DHT22;25589;51.552;13.424;2023-06-22T07:47:55;27.50;99.90
39919;DHT22;25589;51.552;13.424;2023-06-22T07:50:20;27.50;99.90
39919;DHT22;25589;51.552;13.424;2023-06-22T07:52:46;27.50;99.90
39919;DHT22;25589;51.552;13.424;2023-06-22T07:55:13;27.60;99.90
39919;DHT22;25589;51.552;13.424;2023-06-22T07:57:38;27.70;99.90
39919;DHT22;25589;51.552;13.424;2023-06-22T08:00:05;27.80;99.90
39919;DHT22;25589;51.552;13.424;2023-06-22T08:02:44;27.80;99.90
39919;DHT22;25589;51.552;13.424;2023-06-22T08:05:09;27.90;99.90
39919;DHT22;25589;51.552;13.424;2023-06-22T08:07:36;28.00;99.90
39919;DHT22;25589;51.552;13.424;2023-06-22T08:10:03;28.20;99.90
39919;DHT22;25589;51.552;13.424;2023-06-22T08:12:29;28.30;99.90
39919;DHT22;25589;51.552;13.424;2023-06-22T08:14:55;28.40;99.90
39919;DHT22;25589;51.552;13.424;2023-06-22T08:17:22;28.60;99.90
39919;DHT22;25589;51.552;13.424;2023-06-22T08:19:48;28.70;99.90
39919;DHT22;25589;51.552;13.424;2023-06-22T08:22:13;28.80;99.90
39919;DHT22;25589;51.552;13.424;2023-06-22T08:24:39;28.90;99.90
39919;DHT22;25589;51.552;13.424;2023-06-22T08:27:07;28.90;99.90
39919;DHT22;25589;51.552;13.424;2023-06-22T08:29:34;28.90;99.90
39919;DHT22;25589;51.552;13.424;2023-06-22T08:31:59;28.90;99.90
39919;DHT22;25589;51.552;13.424;2023-06-22T08:34:25;29.00;99.90
39919;DHT22;25589;51.552;13.424;2023-06-22T08:36:53;29.00;99.90
39919;DHT22;25589;51.552;13.424;2023-06-22T08:39:22;29.10;99.90
39919;DHT22;25589;51.552;13.424;2023-06-22T08:41:48;29.20;99.90
39919;DHT22;25589;51.552;13.424;2023-06-22T08:44:13;29.30;99.90
39919;DHT22;25589;51.552;13.424;2023-06-22T08:46:39;29.40;99.90
39919;DHT22;25589;51.552;13.424;2023-06-22T08:49:06;29.30;99.90
39919;DHT22;25589;51.552;13.424;2023-06-22T08:51:32;29.40;99.90
39919;DHT22;25589;51.552;13.424;2023-06-22T08:53:57;29.50;99.90
39919;DHT22;25589;51.552;13.424;2023-06-22T08:56:23;29.70;99.90
39919;DHT22;25589;51.552;13.424;2023-06-22T08:58:48;29.90;99.90
39919;DHT22;25589;51.552;13.424;2023-06-22T09:01:14;30.00;99.90
39919;DHT22;25589;51.552;13.424;2023-06-22T09:03:41;30.00;99.90
39919;DHT22;25589;51.552;13.424;2023-06-22T09:06:07;30.00;99.90
39919;DHT22;25589;51.552;13.424;2023-06-22T09:08:35;30.10;99.50
39919;DHT22;25589;51.552;13.424;2023-06-22T09:11:00;30.20;99.10
39919;DHT22;25589;51.552;13.424;2023-06-22T09:13:26;30.40;98.40
39919;DHT22;25589;51.552;13.424;2023-06-22T09:15:51;30.60;98.20
39919;DHT22;25589;51.552;13.424;2023-06-22T09:18:17;30.80;98.20
39919;DHT22;25589;51.552;13.424;2023-06-22T09:20:43;31.00;97.90
39919;DHT22;25589;51.552;13.424;2023-06-22T09:23:10;31.20;96.80
39919;DHT22;25589;51.552;13.424;2023-06-22T09:25:35;31.40;96.50
39919;DHT22;25589;51.552;13.424;2023-06-22T09:28:01;31.40;94.80
39919;DHT22;25589;51.552;13.424;2023-06-22T09:30:26;31.20;94.80
39919;DHT22;25589;51.552;13.424;2023-06-22T09:32:52;31.20;94.90
39919;DHT22;25589;51.552;13.424;2023-06-22T09:35:17;31.10;93.50
39919;DHT22;25589;51.552;13.424;2023-06-22T09:37:43;31.10;93.90
39919;DHT22;25589;51.552;13.424;2023-06-22T09:40:09;31.10;93.50
39919;DHT22;25589;51.552;13.424;2023-06-22T09:42:36;31.30;92.90
39919;DHT22;25589;51.552;13.424;2023-06-22T09:45:02;31.40;92.40
39919;DHT22;25589;51.552;13.424;2023-06-22T09:47:29;31.40;92.70
39919;DHT22;25589;51.552;13.424;2023-06-22T09:49:55;31.50;93.20
39919;DHT22;25589;51.552;13.424;2023-06-22T09:52:21;31.70;93.20
39919;DHT22;25589;51.552;13.424;2023-06-22T09:54:47;31.80;93.00
39919;DHT22;25589;51.552;13.424;2023-06-22T09:57:12;31.80;93.00
39919;DHT22;25589;51.552;13.424;2023-06-22T09:59:38;32.00;92.40
39919;DHT22;25589;51.552;13.424;2023-06-22T10:02:06;32.00;92.10
39919;DHT22;25589;51.552;13.424;2023-06-22T10:04:32;32.20;91.60
39919;DHT22;25589;51.552;13.424;2023-06-22T10:06:58;32.40;90.90
39919;DHT22;25589;51.552;13.424;2023-06-22T10:09:23;32.40;90.30
39919;DHT22;25589;51.552;13.424;2023-06-22T10:11:49;32.40;90.10
39919;DHT22;25589;51.552;13.424;2023-06-22T10:14:15;32.20;89.90
39919;DHT22;25589;51.552;13.424;2023-06-22T10:16:40;32.20;89.50
39919;DHT22;25589;51.552;13.424;2023-06-22T10:19:06;32.20;89.60
39919;DHT22;25589;51.552;13.424;2023-06-22T10:21:32;32.40;89.00
39919;DHT22;25589;51.552;13.424;2023-06-22T10:23:59;32.60;87.80
39919;DHT22;25589;51.552;13.424;2023-06-22T10:26:27;32.50;87.80
39919;DHT22;25589;51.552;13.424;2023-06-22T10:28:54;32.40;87.60
39919;DHT22;25589;51.552;13.424;2023-06-22T10:31:19;32.20;88.50
39919;DHT22;25589;51.552;13.424;2023-06-22T10:33:45;32.10;88.50
39919;DHT22;25589;51.552;13.424;2023-06-22T10:36:11;31.90;87.70
39919;DHT22;25589;51.552;13.424;2023-06-22T10:38:37;31.90;88.40
39919;DHT22;25589;51.552;13.424;2023-06-22T10:41:02;32.00;88.20
39919;DHT22;25589;51.552;13.424;2023-06-22T10:43:28;32.30;86.30
39919;DHT22;25589;51.552;13.424;2023-06-22T10:45:53;32.50;85.60
39919;DHT22;25589;51.552;13.424;2023-06-22T10:48:19;32.50;84.80
39919;DHT22;25589;51.552;13.424;2023-06-22T10:50:44;32.70;84.90
39919;DHT22;25589;51.552;13.424;2023-06-22T10:53:10;33.00;83.60
39919;DHT22;25589;51.552;13.424;2023-06-22T10:55:35;33.30;81.90
39919;DHT22;25589;51.552;13.424;2023-06-22T10:58:01;33.10;81.70
39919;DHT22;25589;51.552;13.424;2023-06-22T11:00:26;33.00;82.00
39919;DHT22;25589;51.552;13.424;2023-06-22T11:02:52;33.00;81.50
39919;DHT22;25589;51.552;13.424;2023-06-22T11:05:18;33.10;81.40
39919;DHT22;25589;51.552;13.424;2023-06-22T11:07:43;33.00;81.10
39919;DHT22;25589;51.552;13.424;2023-06-22T11:10:10;33.00;81.50
39919;DHT22;25589;51.552;13.424;2023-06-22T11:12:36;33.30;80.10
39919;DHT22;25589;51.552;13.424;2023-06-22T11:15:02;33.60;79.30
39919;DHT22;25589;51.552;13.424;2023-06-22T11:17:27;33.60;78.90
39919;DHT22;25589;51.552;13.424;2023-06-22T11:19:53;33.60;78.30
39919;DHT22;25589;51.552;13.424;2023-06-22T11:22:18;33.40;77.80
39919;DHT22;25589;51.552;13.424;2023-06-22T11:24:44;33.50;77.70
39919;DHT22;25589;51.552;13.424;2023-06-22T11:27:09;33.60;76.50
39919;DHT22;25589;51.552;13.424;2023-06-22T11:29:35;33.50;75.40
39919;DHT22;25589;51.552;13.424;2023-06-22T11:32:02;33.40;75.70
39919;DHT22;25589;51.552;13.424;2023-06-22T11:34:27;33.50;75.70
39919;DHT22;25589;51.552;13.424;2023-06-22T11:36:53;33.50;75.70
39919;DHT22;25589;51.552;13.424;2023-06-22T11:39:18;33.40;75.90
39919;DHT22;25589;51.552;13.424;2023-06-22T11:41:44;33.40;75.30
39919;DHT22;25589;51.552;13.424;2023-06-22T11:44:10;33.70;75.10
39919;DHT22;25589;51.552;13.424;2023-06-22T11:46:35;33.70;74.20
39919;DHT22;25589;51.552;13.424;2023-06-22T11:49:01;33.90;73.60
39919;DHT22;25589;51.552;13.424;2023-06-22T11:51:27;34.10;73.00
39919;DHT22;25589;51.552;13.424;2023-06-22T11:53:53;34.20;71.40
39919;DHT22;25589;51.552;13.424;2023-06-22T11:56:19;34.00;71.40
39919;DHT22;25589;51.552;13.424;2023-06-22T11:58:44;33.90;71.50
39919;DHT22;25589;51.552;13.424;2023-06-22T12:01:10;33.90;71.40
39919;DHT22;25589;51.552;13.424;2023-06-22T12:03:35;33.90;71.20
39919;DHT22;25589;51.552;13.424;2023-06-22T12:06:01;33.90;70.80
39919;DHT22;25589;51.552;13.424;2023-06-22T12:08:26;34.00;69.30
39919;DHT22;25589;51.552;13.424;2023-06-22T12:10:52;34.30;68.40
39919;DHT22;25589;51.552;13.424;2023-06-22T12:13:19;34.40;68.60
39919;DHT22;25589;51.552;13.424;2023-06-22T12:15:44;34.40;68.50
39919;DHT22;25589;51.552;13.424;2023-06-22T12:18:11;34.00;69.30
39919;DHT22;25589;51.552;13.424;2023-06-22T12:20:36;34.00;69.50
39919;DHT22;25589;51.552;13.424;2023-06-22T12:23:02;33.80;70.40
39919;DHT22;25589;51.552;13.424;2023-06-22T12:25:28;34.00;70.20
39919;DHT22;25589;51.552;13.424;2023-06-22T12:27:53;34.30;69.60
39919;DHT22;25589;51.552;13.424;2023-06-22T12:30:19;34.80;68.20
39919;DHT22;25589;51.552;13.424;2023-06-22T12:32:44;35.00;67.20
39919;DHT22;25589;51.552;13.424;2023-06-22T12:35:10;35.00;66.20
39919;DHT22;25589;51.552;13.424;2023-06-22T12:37:40;35.00;65.70
39919;DHT22;25589;51.552;13.424;2023-06-22T12:40:07;35.10;65.80
39919;DHT22;25589;51.552;13.424;2023-06-22T12:42:32;35.10;65.60
39919;DHT22;25589;51.552;13.424;2023-06-22T12:44:58;35.20;65.20
39919;DHT22;25589;51.552;13.424;2023-06-22T12:47:24;35.10;65.20
39919;DHT22;25589;51.552;13.424;2023-06-22T12:49:49;34.70;65.80
39919;DHT22;25589;51.552;13.424;2023-06-22T12:52:15;34.70;65.90
39919;DHT22;25589;51.552;13.424;2023-06-22T12:54:40;34.40;66.60
39919;DHT22;25589;51.552;13.424;2023-06-22T12:57:06;34.60;66.60
39919;DHT22;25589;51.552;13.424;2023-06-22T12:59:32;34.90;66.20
39919;DHT22;25589;51.552;13.424;2023-06-22T13:01:57;35.20;65.80
39919;DHT22;25589;51.552;13.424;2023-06-22T13:04:23;35.60;63.70
39919;DHT22;25589;51.552;13.424;2023-06-22T13:06:48;35.90;62.50
39919;DHT22;25589;51.552;13.424;2023-06-22T13:09:15;36.00;61.80
39919;DHT22;25589;51.552;13.424;2023-06-22T13:11:41;35.90;62.00
39919;DHT22;25589;51.552;13.424;2023-06-22T13:14:07;35.70;62.60
39919;DHT22;25589;51.552;13.424;2023-06-22T13:16:32;35.50;62.40
39919;DHT22;25589;51.552;13.424;2023-06-22T13:18:58;35.30;62.40
39919;DHT22;25589;51.552;13.424;2023-06-22T13:21:23;35.00;63.30
39919;DHT22;25589;51.552;13.424;2023-06-22T13:23:49;34.90;63.50
39919;DHT22;25589;51.552;13.424;2023-06-22T13:26:14;34.80;63.30
39919;DHT22;25589;51.552;13.424;2023-06-22T13:28:40;34.90;63.10
39919;DHT22;25589;51.552;13.424;2023-06-22T13:31:05;35.40;62.80
39919;DHT22;25589;51.552;13.424;2023-06-22T13:33:31;35.80;61.60
39919;DHT22;25589;51.552;13.424;2023-06-22T13:35:57;36.00;60.50
39919;DHT22;25589;51.552;13.424;2023-06-22T13:38:22;36.00;60.00
39919;DHT22;25589;51.552;13.424;2023-06-22T13:40:48;36.30;59.50
39919;DHT22;25589;51.552;13.424;2023-06-22T13:43:14;36.40;59.10
39919;DHT22;25589;51.552;13.424;2023-06-22T13:45:41;36.80;58.80
39919;DHT22;25589;51.552;13.424;2023-06-22T13:48:07;36.80;58.40
39919;DHT22;25589;51.552;13.424;2023-06-22T13:50:33;36.60;57.70
39919;DHT22;25589;51.552;13.424;2023-06-22T13:52:59;36.40;58.60
39919;DHT22;25589;51.552;13.424;2023-06-22T13:55:24;36.30;59.00
39919;DHT22;25589;51.552;13.424;2023-06-22T13:57:50;36.10;59.40
39919;DHT22;25589;51.552;13.424;2023-06-22T14:00:17;36.40;59.10
39919;DHT22;25589;51.552;13.424;2023-06-22T14:02:43;36.60;58.20
39919;DHT22;25589;51.552;13.424;2023-06-22T14:05:09;36.80;57.80
39919;DHT22;25589;51.552;13.424;2023-06-22T14:07:35;37.10;57.10
39919;DHT22;25589;51.552;13.424;2023-06-22T14:10:01;37.10;56.90
39919;DHT22;25589;51.552;13.424;2023-06-22T14:12:26;37.30;56.50
39919;DHT22;25589;51.552;13.424;2023-06-22T14:14:52;37.30;56.00
39919;DHT22;25589;51.552;13.424;2023-06-22T14:17:18;37.50;56.00
39919;DHT22;25589;51.552;13.424;2023-06-22T14:19:49;37.60;55.60
39919;DHT22;25589;51.552;13.424;2023-06-22T14:22:15;37.70;55.10
39919;DHT22;25589;51.552;13.424;2023-06-22T14:24:40;37.80;55.50
39919;DHT22;25589;51.552;13.424;2023-06-22T14:27:06;37.80;54.90
39919;DHT22;25589;51.552;13.424;2023-06-22T14:29:34;38.00;54.90
39919;DHT22;25589;51.552;13.424;2023-06-22T14:31:59;38.00;54.20
39919;DHT22;25589;51.552;13.424;2023-06-22T14:34:25;38.20;53.90
39919;DHT22;25589;51.552;13.424;2023-06-22T14:36:50;38.50;53.30
39919;DHT22;25589;51.552;13.424;2023-06-22T14:39:16;38.60;52.70
39919;DHT22;25589;51.552;13.424;2023-06-22T14:41:41;38.50;52.90
39919;DHT22;25589;51.552;13.424;2023-06-22T14:44:07;38.80;52.60
39919;DHT22;25589;51.552;13.424;2023-06-22T14:46:32;38.80;52.70
39919;DHT22;25589;51.552;13.424;2023-06-22T14:48:58;38.90;52.10
39919;DHT22;25589;51.552;13.424;2023-06-22T14:51:24;39.00;51.90
39919;DHT22;25589;51.552;13.424;2023-06-22T14:53:49;39.20;51.70
39919;DHT22;25589;51.552;13.424;2023-06-22T14:56:15;39.30;51.30
39919;DHT22;25589;51.552;13.424;2023-06-22T14:58:41;38.90;51.40
39919;DHT22;25589;51.552;13.424;2023-06-22T15:01:10;38.90;51.60
39919;DHT22;25589;51.552;13.424;2023-06-22T15:03:37;39.00;51.40
39919;DHT22;25589;51.552;13.424;2023-06-22T15:06:03;38.60;51.90
39919;DHT22;25589;51.552;13.424;2023-06-22T15:08:29;38.10;52.50
39919;DHT22;25589;51.552;13.424;2023-06-22T15:10:57;37.80;53.00
39919;DHT22;25589;51.552;13.424;2023-06-22T15:13:23;37.80;53.10